sensor_id;sensor_type;location;lat;lon;timestamp;P1;durP1;ratioP1;P2;durP2;ratioP2
73951;SDS011;62304;47.662;18.324;2023-02-05T00:00:51;2.95;;;0.90;;
73951;SDS011;62304;47.662;18.324;2023-02-05T00:03:54;4.25;;;0.93;;
73951;SDS011;62304;47.662;18.324;2023-02-05T00:06:57;4.87;;;1.10;;
73951;SDS011;62304;47.662;18.324;2023-02-05T00:10:00;3.20;;;0.90;;
73951;SDS011;62304;47.662;18.324;2023-02-05T00:13:03;5.32;;;1.62;;
73951;SDS011;62304;47.662;18.324;2023-02-05T00:16:07;4.37;;;1.10;;
73951;SDS011;62304;47.662;18.324;2023-02-05T00:19:11;4.83;;;1.43;;
73951;SDS011;62304;47.662;18.324;2023-02-05T00:22:14;4.37;;;1.37;;
73951;SDS011;62304;47.662;18.324;2023-02-05T00:25:17;4.53;;;1.30;;
73951;SDS011;62304;47.662;18.324;2023-02-05T00:28:20;2.95;;;0.80;;
73951;SDS011;62304;47.662;18.324;2023-02-05T00:31:23;3.17;;;0.65;;
73951;SDS011;62304;47.662;18.324;2023-02-05T00:34:27;3.83;;;1.08;;
73951;SDS011;62304;47.662;18.324;2023-02-05T00:37:29;4.00;;;1.12;;
73951;SDS011;62304;47.662;18.324;2023-02-05T00:40:33;2.92;;;1.12;;
73951;SDS011;62304;47.662;18.324;2023-02-05T00:43:36;6.50;;;1.62;;
73951;SDS011;62304;47.662;18.324;2023-02-05T00:46:39;4.45;;;1.15;;
73951;SDS011;62304;47.662;18.324;2023-02-05T00:49:42;4.60;;;1.10;;
73951;SDS011;62304;47.662;18.324;2023-02-05T00:52:45;4.10;;;1.30;;
73951;SDS011;62304;47.662;18.324;2023-02-05T00:55:48;3.60;;;0.90;;
73951;SDS011;62304;47.662;18.324;2023-02-05T00:58:51;3.70;;;1.00;;
73951;SDS011;62304;47.662;18.324;2023-02-05T01:01:54;4.03;;;1.25;;
73951;SDS011;62304;47.662;18.324;2023-02-05T01:04:57;6.25;;;1.37;;
73951;SDS011;62304;47.662;18.324;2023-02-05T01:08:00;6.53;;;0.80;;
73951;SDS011;62304;47.662;18.324;2023-02-05T01:11:05;3.40;;;1.10;;
73951;SDS011;62304;47.662;18.324;2023-02-05T01:14:09;4.53;;;1.33;;
73951;SDS011;62304;47.662;18.324;2023-02-05T01:17:12;3.42;;;0.90;;
73951;SDS011;62304;47.662;18.324;2023-02-05T01:20:16;3.37;;;0.90;;
73951;SDS011;62304;47.662;18.324;2023-02-05T01:23:19;4.60;;;1.10;;
73951;SDS011;62304;47.662;18.324;2023-02-05T01:26:22;4.25;;;1.50;;
73951;SDS011;62304;47.662;18.324;2023-02-05T01:29:25;1.80;;;0.43;;
73951;SDS011;62304;47.662;18.324;2023-02-05T01:32:30;4.27;;;1.03;;
73951;SDS011;62304;47.662;18.324;2023-02-05T01:35:33;6.93;;;1.35;;
73951;SDS011;62304;47.662;18.324;2023-02-05T01:38:37;4.12;;;1.10;;
73951;SDS011;62304;47.662;18.324;2023-02-05T01:41:41;3.28;;;0.60;;
73951;SDS011;62304;47.662;18.324;2023-02-05T01:48:36;2.83;;;0.70;;
73951;SDS011;62304;47.662;18.324;2023-02-05T01:51:44;5.60;;;1.27;;
73951;SDS011;62304;47.662;18.324;2023-02-05T01:54:49;3.77;;;1.10;;
73951;SDS011;62304;47.662;18.324;2023-02-05T01:57:54;4.60;;;1.10;;
73951;SDS011;62304;47.662;18.324;2023-02-05T02:00:58;2.90;;;0.68;;
73951;SDS011;62304;47.662;18.324;2023-02-05T02:04:01;4.03;;;1.00;;
73951;SDS011;62304;47.662;18.324;2023-02-05T02:07:06;3.22;;;0.95;;
73951;SDS011;62304;47.662;18.324;2023-02-05T02:10:12;3.28;;;0.75;;
73951;SDS011;62304;47.662;18.324;2023-02-05T02:13:17;3.17;;;0.88;;
73951;SDS011;62304;47.662;18.324;2023-02-05T02:16:23;3.50;;;0.75;;
73951;SDS011;62304;47.662;18.324;2023-02-05T02:20:12;4.30;;;0.80;;
73951;SDS011;62304;47.662;18.324;2023-02-05T02:27:04;3.90;;;0.90;;
73951;SDS011;62304;47.662;18.324;2023-02-05T02:33:40;6.10;;;1.47;;
73951;SDS011;62304;47.662;18.324;2023-02-05T02:43:21;3.08;;;0.77;;
73951;SDS011;62304;47.662;18.324;2023-02-05T02:46:31;3.27;;;1.00;;
73951;SDS011;62304;47.662;18.324;2023-02-05T02:53:04;5.85;;;1.55;;
73951;SDS011;62304;47.662;18.324;2023-02-05T02:56:12;5.87;;;1.65;;
73951;SDS011;62304;47.662;18.324;2023-02-05T02:59:18;4.37;;;1.20;;
73951;SDS011;62304;47.662;18.324;2023-02-05T03:02:25;3.28;;;0.85;;
73951;SDS011;62304;47.662;18.324;2023-02-05T03:05:32;5.57;;;1.60;;
73951;SDS011;62304;47.662;18.324;2023-02-05T03:08:44;3.10;;;1.05;;
73951;SDS011;62304;47.662;18.324;2023-02-05T03:12:00;4.72;;;1.40;;
73951;SDS011;62304;47.662;18.324;2023-02-05T03:15:04;4.97;;;1.65;;
73951;SDS011;62304;47.662;18.324;2023-02-05T03:18:08;4.62;;;1.08;;
73951;SDS011;62304;47.662;18.324;2023-02-05T03:21:14;5.85;;;1.40;;
73951;SDS011;62304;47.662;18.324;2023-02-05T03:24:20;4.20;;;0.95;;
73951;SDS011;62304;47.662;18.324;2023-02-05T03:27:23;3.95;;;1.08;;
73951;SDS011;62304;47.662;18.324;2023-02-05T03:30:28;3.97;;;1.10;;
73951;SDS011;62304;47.662;18.324;2023-02-05T03:34:02;6.00;;;1.40;;
73951;SDS011;62304;47.662;18.324;2023-02-05T03:37:20;3.95;;;1.17;;
73951;SDS011;62304;47.662;18.324;2023-02-05T03:40:35;4.07;;;1.20;;
73951;SDS011;62304;47.662;18.324;2023-02-05T03:50:29;4.57;;;0.62;;
73951;SDS011;62304;47.662;18.324;2023-02-05T04:00:11;3.58;;;0.90;;
73951;SDS011;62304;47.662;18.324;2023-02-05T04:03:14;5.10;;;1.30;;
73951;SDS011;62304;47.662;18.324;2023-02-05T04:06:19;2.95;;;1.12;;
73951;SDS011;62304;47.662;18.324;2023-02-05T04:09:22;4.23;;;1.30;;
73951;SDS011;62304;47.662;18.324;2023-02-05T04:12:26;2.72;;;0.65;;
73951;SDS011;62304;47.662;18.324;2023-02-05T04:15:29;2.45;;;0.70;;
73951;SDS011;62304;47.662;18.324;2023-02-05T04:18:33;3.12;;;0.75;;
73951;SDS011;62304;47.662;18.324;2023-02-05T04:21:37;3.83;;;1.30;;
73951;SDS011;62304;47.662;18.324;2023-02-05T04:24:41;3.10;;;1.15;;
73951;SDS011;62304;47.662;18.324;2023-02-05T04:27:44;4.57;;;1.15;;
73951;SDS011;62304;47.662;18.324;2023-02-05T04:30:47;9.48;;;1.40;;
73951;SDS011;62304;47.662;18.324;2023-02-05T04:33:50;7.87;;;1.93;;
73951;SDS011;62304;47.662;18.324;2023-02-05T04:36:53;5.57;;;1.40;;
73951;SDS011;62304;47.662;18.324;2023-02-05T04:39:56;3.17;;;1.12;;
73951;SDS011;62304;47.662;18.324;2023-02-05T04:42:59;4.65;;;1.10;;
73951;SDS011;62304;47.662;18.324;2023-02-05T04:46:06;4.62;;;0.90;;
73951;SDS011;62304;47.662;18.324;2023-02-05T04:49:12;4.87;;;0.98;;
73951;SDS011;62304;47.662;18.324;2023-02-05T04:52:15;4.37;;;0.80;;
73951;SDS011;62304;47.662;18.324;2023-02-05T04:55:18;2.30;;;0.50;;
73951;SDS011;62304;47.662;18.324;2023-02-05T04:58:21;3.55;;;1.02;;
73951;SDS011;62304;47.662;18.324;2023-02-05T05:01:24;2.42;;;0.50;;
73951;SDS011;62304;47.662;18.324;2023-02-05T05:04:27;4.05;;;1.00;;
73951;SDS011;62304;47.662;18.324;2023-02-05T05:07:30;3.87;;;0.97;;
73951;SDS011;62304;47.662;18.324;2023-02-05T05:10:32;4.90;;;1.15;;
73951;SDS011;62304;47.662;18.324;2023-02-05T05:13:36;5.15;;;1.30;;
73951;SDS011;62304;47.662;18.324;2023-02-05T05:16:39;5.72;;;1.30;;
73951;SDS011;62304;47.662;18.324;2023-02-05T05:19:42;4.40;;;1.10;;
73951;SDS011;62304;47.662;18.324;2023-02-05T05:22:45;3.12;;;0.60;;
73951;SDS011;62304;47.662;18.324;2023-02-05T05:25:48;4.28;;;1.05;;
73951;SDS011;62304;47.662;18.324;2023-02-05T05:28:54;4.60;;;1.20;;
73951;SDS011;62304;47.662;18.324;2023-02-05T05:31:58;3.93;;;1.03;;
73951;SDS011;62304;47.662;18.324;2023-02-05T05:35:01;3.25;;;0.70;;
73951;SDS011;62304;47.662;18.324;2023-02-05T05:38:04;4.85;;;1.42;;
73951;SDS011;62304;47.662;18.324;2023-02-05T05:41:10;3.97;;;1.10;;
73951;SDS011;62304;47.662;18.324;2023-02-05T05:44:38;6.00;;;1.70;;
73951;SDS011;62304;47.662;18.324;2023-02-05T05:47:41;5.82;;;2.08;;
73951;SDS011;62304;47.662;18.324;2023-02-05T05:50:44;4.03;;;1.12;;
73951;SDS011;62304;47.662;18.324;2023-02-05T05:53:47;3.63;;;0.87;;
73951;SDS011;62304;47.662;18.324;2023-02-05T05:56:51;3.37;;;0.80;;
73951;SDS011;62304;47.662;18.324;2023-02-05T05:59:53;5.62;;;1.05;;
73951;SDS011;62304;47.662;18.324;2023-02-05T06:02:56;3.60;;;1.08;;
73951;SDS011;62304;47.662;18.324;2023-02-05T06:06:00;4.50;;;1.00;;
73951;SDS011;62304;47.662;18.324;2023-02-05T06:09:05;4.93;;;1.12;;
73951;SDS011;62304;47.662;18.324;2023-02-05T06:12:08;4.68;;;0.82;;
73951;SDS011;62304;47.662;18.324;2023-02-05T06:15:12;3.00;;;0.45;;
73951;SDS011;62304;47.662;18.324;2023-02-05T06:18:16;3.22;;;0.85;;
73951;SDS011;62304;47.662;18.324;2023-02-05T06:21:19;2.60;;;0.50;;
73951;SDS011;62304;47.662;18.324;2023-02-05T06:24:22;3.55;;;0.98;;
73951;SDS011;62304;47.662;18.324;2023-02-05T06:27:25;4.97;;;0.83;;
73951;SDS011;62304;47.662;18.324;2023-02-05T06:30:28;3.40;;;0.60;;
73951;SDS011;62304;47.662;18.324;2023-02-05T06:33:31;3.67;;;0.93;;
73951;SDS011;62304;47.662;18.324;2023-02-05T06:36:34;4.68;;;0.75;;
73951;SDS011;62304;47.662;18.324;2023-02-05T06:39:37;4.70;;;1.30;;
73951;SDS011;62304;47.662;18.324;2023-02-05T06:42:40;3.40;;;1.00;;
73951;SDS011;62304;47.662;18.324;2023-02-05T06:45:42;4.62;;;1.45;;
73951;SDS011;62304;47.662;18.324;2023-02-05T06:48:46;2.92;;;0.88;;
73951;SDS011;62304;47.662;18.324;2023-02-05T06:51:48;3.00;;;0.90;;
73951;SDS011;62304;47.662;18.324;2023-02-05T06:54:51;5.62;;;1.27;;
73951;SDS011;62304;47.662;18.324;2023-02-05T06:57:54;3.85;;;1.27;;
73951;SDS011;62304;47.662;18.324;2023-02-05T07:00:57;4.10;;;1.20;;
73951;SDS011;62304;47.662;18.324;2023-02-05T07:04:00;4.20;;;0.98;;
73951;SDS011;62304;47.662;18.324;2023-02-05T07:07:03;4.47;;;1.35;;
73951;SDS011;62304;47.662;18.324;2023-02-05T07:10:06;3.70;;;0.77;;
73951;SDS011;62304;47.662;18.324;2023-02-05T07:13:09;3.90;;;0.93;;
73951;SDS011;62304;47.662;18.324;2023-02-05T07:16:12;5.97;;;1.42;;
73951;SDS011;62304;47.662;18.324;2023-02-05T07:19:15;3.22;;;1.02;;
73951;SDS011;62304;47.662;18.324;2023-02-05T07:22:18;4.68;;;0.95;;
73951;SDS011;62304;47.662;18.324;2023-02-05T07:25:21;4.60;;;1.05;;
73951;SDS011;62304;47.662;18.324;2023-02-05T07:28:24;4.93;;;1.10;;
73951;SDS011;62304;47.662;18.324;2023-02-05T07:31:27;4.12;;;1.02;;
73951;SDS011;62304;47.662;18.324;2023-02-05T07:34:30;3.90;;;1.10;;
73951;SDS011;62304;47.662;18.324;2023-02-05T07:37:33;5.95;;;1.62;;
73951;SDS011;62304;47.662;18.324;2023-02-05T07:40:38;4.70;;;1.47;;
73951;SDS011;62304;47.662;18.324;2023-02-05T07:43:41;5.00;;;1.92;;
73951;SDS011;62304;47.662;18.324;2023-02-05T07:46:44;5.75;;;2.03;;
73951;SDS011;62304;47.662;18.324;2023-02-05T07:49:47;5.28;;;1.87;;
73951;SDS011;62304;47.662;18.324;2023-02-05T07:52:50;7.12;;;1.70;;
73951;SDS011;62304;47.662;18.324;2023-02-05T07:55:53;7.20;;;2.07;;
73951;SDS011;62304;47.662;18.324;2023-02-05T07:58:56;5.75;;;1.87;;
73951;SDS011;62304;47.662;18.324;2023-02-05T08:01:59;6.95;;;2.00;;
73951;SDS011;62304;47.662;18.324;2023-02-05T08:05:02;5.22;;;1.92;;
73951;SDS011;62304;47.662;18.324;2023-02-05T08:08:05;4.03;;;1.60;;
73951;SDS011;62304;47.662;18.324;2023-02-05T08:11:12;6.53;;;1.95;;
73951;SDS011;62304;47.662;18.324;2023-02-05T08:14:17;3.92;;;1.30;;
73951;SDS011;62304;47.662;18.324;2023-02-05T08:17:20;6.87;;;1.83;;
73951;SDS011;62304;47.662;18.324;2023-02-05T08:20:23;6.00;;;1.80;;
73951;SDS011;62304;47.662;18.324;2023-02-05T08:23:26;6.50;;;2.72;;
73951;SDS011;62304;47.662;18.324;2023-02-05T08:26:28;6.80;;;2.28;;
73951;SDS011;62304;47.662;18.324;2023-02-05T08:29:32;6.37;;;2.40;;
73951;SDS011;62304;47.662;18.324;2023-02-05T08:32:35;4.95;;;1.60;;
73951;SDS011;62304;47.662;18.324;2023-02-05T08:35:38;4.80;;;1.33;;
73951;SDS011;62304;47.662;18.324;2023-02-05T08:38:41;8.93;;;1.52;;
73951;SDS011;62304;47.662;18.324;2023-02-05T08:41:44;4.53;;;1.60;;
73951;SDS011;62304;47.662;18.324;2023-02-05T08:44:47;5.03;;;1.87;;
73951;SDS011;62304;47.662;18.324;2023-02-05T08:47:50;4.03;;;1.58;;
73951;SDS011;62304;47.662;18.324;2023-02-05T08:50:53;4.90;;;1.80;;
73951;SDS011;62304;47.662;18.324;2023-02-05T08:53:56;5.40;;;1.98;;
73951;SDS011;62304;47.662;18.324;2023-02-05T08:56:59;5.25;;;1.50;;
73951;SDS011;62304;47.662;18.324;2023-02-05T09:00:02;6.47;;;2.15;;
73951;SDS011;62304;47.662;18.324;2023-02-05T09:03:05;6.05;;;2.22;;
73951;SDS011;62304;47.662;18.324;2023-02-05T09:06:12;4.27;;;1.87;;
73951;SDS011;62304;47.662;18.324;2023-02-05T09:09:16;7.32;;;2.60;;
73951;SDS011;62304;47.662;18.324;2023-02-05T09:12:19;6.75;;;2.30;;
73951;SDS011;62304;47.662;18.324;2023-02-05T09:15:22;6.37;;;2.15;;
73951;SDS011;62304;47.662;18.324;2023-02-05T09:18:25;6.25;;;2.28;;
73951;SDS011;62304;47.662;18.324;2023-02-05T09:21:28;7.03;;;2.67;;
73951;SDS011;62304;47.662;18.324;2023-02-05T09:24:31;4.80;;;1.70;;
73951;SDS011;62304;47.662;18.324;2023-02-05T09:27:34;6.35;;;2.67;;
73951;SDS011;62304;47.662;18.324;2023-02-05T09:30:38;5.75;;;2.37;;
73951;SDS011;62304;47.662;18.324;2023-02-05T09:33:43;5.00;;;2.10;;
73951;SDS011;62304;47.662;18.324;2023-02-05T09:36:47;4.87;;;1.97;;
73951;SDS011;62304;47.662;18.324;2023-02-05T09:39:50;8.07;;;2.90;;
73951;SDS011;62304;47.662;18.324;2023-02-05T09:50:31;6.37;;;2.78;;
73951;SDS011;62304;47.662;18.324;2023-02-05T09:53:27;6.27;;;2.57;;
73951;SDS011;62304;47.662;18.324;2023-02-05T09:56:36;6.62;;;2.45;;
73951;SDS011;62304;47.662;18.324;2023-02-05T09:59:42;5.10;;;1.70;;
73951;SDS011;62304;47.662;18.324;2023-02-05T10:06:37;5.57;;;2.20;;
73951;SDS011;62304;47.662;18.324;2023-02-05T10:19:56;6.55;;;2.40;;
73951;SDS011;62304;47.662;18.324;2023-02-05T10:23:15;6.30;;;1.58;;
73951;SDS011;62304;47.662;18.324;2023-02-05T10:30:05;7.20;;;1.58;;
73951;SDS011;62304;47.662;18.324;2023-02-05T10:36:57;5.65;;;2.15;;
73951;SDS011;62304;47.662;18.324;2023-02-05T10:40:14;7.35;;;2.80;;
73951;SDS011;62304;47.662;18.324;2023-02-05T10:43:36;9.10;;;3.07;;
73951;SDS011;62304;47.662;18.324;2023-02-05T10:46:45;6.20;;;2.35;;
73951;SDS011;62304;47.662;18.324;2023-02-05T10:49:56;7.97;;;2.87;;
73951;SDS011;62304;47.662;18.324;2023-02-05T10:53:05;8.13;;;3.40;;
73951;SDS011;62304;47.662;18.324;2023-02-05T10:56:10;7.53;;;2.47;;
73951;SDS011;62304;47.662;18.324;2023-02-05T10:59:22;6.43;;;2.70;;
73951;SDS011;62304;47.662;18.324;2023-02-05T11:02:33;5.35;;;1.77;;
73951;SDS011;62304;47.662;18.324;2023-02-05T11:05:41;4.68;;;1.80;;
73951;SDS011;62304;47.662;18.324;2023-02-05T11:08:45;7.00;;;1.60;;
73951;SDS011;62304;47.662;18.324;2023-02-05T11:11:55;4.60;;;1.50;;
73951;SDS011;62304;47.662;18.324;2023-02-05T11:15:01;8.80;;;2.63;;
73951;SDS011;62304;47.662;18.324;2023-02-05T11:18:05;9.82;;;3.25;;
73951;SDS011;62304;47.662;18.324;2023-02-05T11:21:10;5.70;;;2.10;;
73951;SDS011;62304;47.662;18.324;2023-02-05T11:24:23;8.32;;;3.42;;
73951;SDS011;62304;47.662;18.324;2023-02-05T11:27:30;6.15;;;2.75;;
73951;SDS011;62304;47.662;18.324;2023-02-05T11:30:36;9.03;;;3.00;;
73951;SDS011;62304;47.662;18.324;2023-02-05T11:34:09;7.45;;;1.75;;
73951;SDS011;62304;47.662;18.324;2023-02-05T11:37:16;7.20;;;2.62;;
73951;SDS011;62304;47.662;18.324;2023-02-05T11:40:21;7.20;;;2.25;;
73951;SDS011;62304;47.662;18.324;2023-02-05T11:43:33;6.05;;;2.37;;
73951;SDS011;62304;47.662;18.324;2023-02-05T11:46:41;6.57;;;2.37;;
73951;SDS011;62304;47.662;18.324;2023-02-05T11:49:48;5.10;;;2.15;;
73951;SDS011;62304;47.662;18.324;2023-02-05T11:52:53;5.82;;;2.40;;
73951;SDS011;62304;47.662;18.324;2023-02-05T11:56:08;5.97;;;2.22;;
73951;SDS011;62304;47.662;18.324;2023-02-05T11:59:21;6.80;;;1.83;;
73951;SDS011;62304;47.662;18.324;2023-02-05T12:05:34;5.18;;;2.08;;
73951;SDS011;62304;47.662;18.324;2023-02-05T12:12:01;4.45;;;2.00;;
73951;SDS011;62304;47.662;18.324;2023-02-05T12:15:32;5.43;;;1.87;;
73951;SDS011;62304;47.662;18.324;2023-02-05T12:19:14;8.77;;;4.10;;
73951;SDS011;62304;47.662;18.324;2023-02-05T12:26:12;6.53;;;2.80;;
73951;SDS011;62304;47.662;18.324;2023-02-05T12:40:15;5.75;;;1.90;;
73951;SDS011;62304;47.662;18.324;2023-02-05T12:44:03;6.53;;;2.67;;
73951;SDS011;62304;47.662;18.324;2023-02-05T12:53:50;3.37;;;1.20;;
73951;SDS011;62304;47.662;18.324;2023-02-05T12:57:05;5.00;;;2.22;;
73951;SDS011;62304;47.662;18.324;2023-02-05T13:00:17;7.97;;;3.20;;
73951;SDS011;62304;47.662;18.324;2023-02-05T13:06:36;6.35;;;2.47;;
73951;SDS011;62304;47.662;18.324;2023-02-05T13:09:53;8.47;;;2.67;;
73951;SDS011;62304;47.662;18.324;2023-02-05T13:13:03;8.98;;;2.92;;
73951;SDS011;62304;47.662;18.324;2023-02-05T13:16:11;9.65;;;3.35;;
73951;SDS011;62304;47.662;18.324;2023-02-05T13:19:22;5.53;;;1.83;;
73951;SDS011;62304;47.662;18.324;2023-02-05T13:22:32;6.30;;;2.10;;
73951;SDS011;62304;47.662;18.324;2023-02-05T13:26:00;5.03;;;1.90;;
73951;SDS011;62304;47.662;18.324;2023-02-05T13:29:25;5.62;;;2.12;;
73951;SDS011;62304;47.662;18.324;2023-02-05T13:32:36;6.68;;;2.55;;
73951;SDS011;62304;47.662;18.324;2023-02-05T13:39:27;3.45;;;1.30;;
73951;SDS011;62304;47.662;18.324;2023-02-05T13:42:41;8.27;;;2.60;;
73951;SDS011;62304;47.662;18.324;2023-02-05T13:59:38;5.73;;;1.90;;
73951;SDS011;62304;47.662;18.324;2023-02-05T14:02:45;5.62;;;1.95;;
73951;SDS011;62304;47.662;18.324;2023-02-05T14:05:51;5.95;;;2.15;;
73951;SDS011;62304;47.662;18.324;2023-02-05T14:09:39;5.18;;;1.83;;
73951;SDS011;62304;47.662;18.324;2023-02-05T14:12:29;6.85;;;2.05;;
73951;SDS011;62304;47.662;18.324;2023-02-05T14:15:37;9.47;;;2.33;;
73951;SDS011;62304;47.662;18.324;2023-02-05T14:18:46;7.47;;;1.85;;
73951;SDS011;62304;47.662;18.324;2023-02-05T14:25:03;4.75;;;1.80;;
73951;SDS011;62304;47.662;18.324;2023-02-05T14:28:32;5.40;;;1.62;;
73951;SDS011;62304;47.662;18.324;2023-02-05T14:31:46;5.30;;;2.13;;
73951;SDS011;62304;47.662;18.324;2023-02-05T14:35:01;8.52;;;2.70;;
73951;SDS011;62304;47.662;18.324;2023-02-05T14:38:15;5.87;;;2.20;;
73951;SDS011;62304;47.662;18.324;2023-02-05T14:41:27;5.93;;;2.00;;
73951;SDS011;62304;47.662;18.324;2023-02-05T14:44:41;5.97;;;2.22;;
73951;SDS011;62304;47.662;18.324;2023-02-05T14:47:46;7.57;;;2.33;;
73951;SDS011;62304;47.662;18.324;2023-02-05T14:51:13;6.03;;;2.35;;
73951;SDS011;62304;47.662;18.324;2023-02-05T14:54:20;8.15;;;2.60;;
73951;SDS011;62304;47.662;18.324;2023-02-05T14:57:38;6.35;;;2.12;;
73951;SDS011;62304;47.662;18.324;2023-02-05T15:01:08;7.25;;;2.12;;
73951;SDS011;62304;47.662;18.324;2023-02-05T15:07:50;5.07;;;1.92;;
73951;SDS011;62304;47.662;18.324;2023-02-05T15:14:40;3.80;;;1.15;;
73951;SDS011;62304;47.662;18.324;2023-02-05T15:17:56;3.57;;;1.43;;
73951;SDS011;62304;47.662;18.324;2023-02-05T15:21:11;5.87;;;2.20;;
73951;SDS011;62304;47.662;18.324;2023-02-05T15:24:19;5.93;;;1.77;;
73951;SDS011;62304;47.662;18.324;2023-02-05T15:27:48;7.75;;;2.92;;
73951;SDS011;62304;47.662;18.324;2023-02-05T15:34:41;8.13;;;3.40;;
73951;SDS011;62304;47.662;18.324;2023-02-05T15:37:59;5.12;;;1.87;;
73951;SDS011;62304;47.662;18.324;2023-02-05T15:41:05;4.97;;;2.05;;
73951;SDS011;62304;47.662;18.324;2023-02-05T15:44:18;6.80;;;2.45;;
73951;SDS011;62304;47.662;18.324;2023-02-05T15:47:25;7.17;;;2.30;;
73951;SDS011;62304;47.662;18.324;2023-02-05T15:50:30;6.45;;;2.50;;
73951;SDS011;62304;47.662;18.324;2023-02-05T15:53:37;7.25;;;2.87;;
73951;SDS011;62304;47.662;18.324;2023-02-05T15:56:46;5.68;;;1.95;;
73951;SDS011;62304;47.662;18.324;2023-02-05T15:59:53;8.60;;;2.33;;
73951;SDS011;62304;47.662;18.324;2023-02-05T16:03:00;8.63;;;2.97;;
73951;SDS011;62304;47.662;18.324;2023-02-05T16:06:11;11.55;;;4.10;;
73951;SDS011;62304;47.662;18.324;2023-02-05T16:09:24;10.52;;;4.53;;
73951;SDS011;62304;47.662;18.324;2023-02-05T16:12:31;8.27;;;2.90;;
73951;SDS011;62304;47.662;18.324;2023-02-05T16:15:46;9.73;;;4.80;;
73951;SDS011;62304;47.662;18.324;2023-02-05T16:19:16;9.48;;;3.87;;
73951;SDS011;62304;47.662;18.324;2023-02-05T16:22:38;12.13;;;4.85;;
73951;SDS011;62304;47.662;18.324;2023-02-05T16:25:56;8.77;;;3.33;;
73951;SDS011;62304;47.662;18.324;2023-02-05T16:29:04;7.53;;;2.58;;
73951;SDS011;62304;47.662;18.324;2023-02-05T16:32:30;8.35;;;2.90;;
73951;SDS011;62304;47.662;18.324;2023-02-05T16:35:40;7.53;;;3.03;;
73951;SDS011;62304;47.662;18.324;2023-02-05T16:38:53;8.40;;;3.28;;
73951;SDS011;62304;47.662;18.324;2023-02-05T16:42:06;11.40;;;3.05;;
73951;SDS011;62304;47.662;18.324;2023-02-05T16:45:21;9.40;;;3.05;;
73951;SDS011;62304;47.662;18.324;2023-02-05T16:48:27;6.40;;;2.80;;
73951;SDS011;62304;47.662;18.324;2023-02-05T16:54:48;8.02;;;3.00;;
73951;SDS011;62304;47.662;18.324;2023-02-05T16:57:53;7.97;;;2.95;;
73951;SDS011;62304;47.662;18.324;2023-02-05T17:01:07;10.43;;;3.53;;
73951;SDS011;62304;47.662;18.324;2023-02-05T17:07:30;17.77;;;7.07;;
73951;SDS011;62304;47.662;18.324;2023-02-05T17:10:49;20.80;;;8.50;;
73951;SDS011;62304;47.662;18.324;2023-02-05T17:17:30;12.88;;;5.68;;
73951;SDS011;62304;47.662;18.324;2023-02-05T17:20:35;16.83;;;7.65;;
73951;SDS011;62304;47.662;18.324;2023-02-05T17:23:46;14.13;;;5.97;;
73951;SDS011;62304;47.662;18.324;2023-02-05T17:26:51;11.77;;;4.47;;
73951;SDS011;62304;47.662;18.324;2023-02-05T17:29:57;11.15;;;4.50;;
73951;SDS011;62304;47.662;18.324;2023-02-05T17:33:06;10.15;;;4.18;;
73951;SDS011;62304;47.662;18.324;2023-02-05T17:36:14;9.50;;;4.45;;
73951;SDS011;62304;47.662;18.324;2023-02-05T17:39:19;10.20;;;3.77;;
73951;SDS011;62304;47.662;18.324;2023-02-05T17:42:24;9.85;;;3.95;;
73951;SDS011;62304;47.662;18.324;2023-02-05T17:45:30;7.00;;;3.17;;
73951;SDS011;62304;47.662;18.324;2023-02-05T17:48:39;10.20;;;4.05;;
73951;SDS011;62304;47.662;18.324;2023-02-05T17:51:43;9.37;;;4.07;;
73951;SDS011;62304;47.662;18.324;2023-02-05T17:54:47;11.55;;;4.55;;
73951;SDS011;62304;47.662;18.324;2023-02-05T17:57:52;11.45;;;4.70;;
73951;SDS011;62304;47.662;18.324;2023-02-05T18:00:58;12.52;;;5.00;;
73951;SDS011;62304;47.662;18.324;2023-02-05T18:04:02;11.98;;;5.65;;
73951;SDS011;62304;47.662;18.324;2023-02-05T18:07:14;12.15;;;5.05;;
73951;SDS011;62304;47.662;18.324;2023-02-05T18:10:36;11.73;;;5.40;;
73951;SDS011;62304;47.662;18.324;2023-02-05T18:13:41;11.23;;;4.20;;
73951;SDS011;62304;47.662;18.324;2023-02-05T18:16:45;11.70;;;4.70;;
73951;SDS011;62304;47.662;18.324;2023-02-05T18:19:50;8.95;;;4.60;;
73951;SDS011;62304;47.662;18.324;2023-02-05T18:22:55;11.15;;;4.50;;
73951;SDS011;62304;47.662;18.324;2023-02-05T18:25:59;11.20;;;5.13;;
73951;SDS011;62304;47.662;18.324;2023-02-05T18:29:05;15.93;;;5.50;;
73951;SDS011;62304;47.662;18.324;2023-02-05T18:32:10;14.45;;;4.78;;
73951;SDS011;62304;47.662;18.324;2023-02-05T18:35:14;15.05;;;5.70;;
73951;SDS011;62304;47.662;18.324;2023-02-05T18:38:18;16.03;;;6.40;;
73951;SDS011;62304;47.662;18.324;2023-02-05T18:41:24;15.73;;;6.72;;
73951;SDS011;62304;47.662;18.324;2023-02-05T18:44:33;29.35;;;12.48;;
73951;SDS011;62304;47.662;18.324;2023-02-05T18:47:37;38.38;;;15.07;;
73951;SDS011;62304;47.662;18.324;2023-02-05T18:50:41;34.27;;;12.63;;
73951;SDS011;62304;47.662;18.324;2023-02-05T18:53:45;28.50;;;11.00;;
73951;SDS011;62304;47.662;18.324;2023-02-05T18:56:49;39.88;;;13.80;;
73951;SDS011;62304;47.662;18.324;2023-02-05T18:59:58;69.30;;;18.67;;
73951;SDS011;62304;47.662;18.324;2023-02-05T19:03:02;65.72;;;20.75;;
73951;SDS011;62304;47.662;18.324;2023-02-05T19:06:07;51.08;;;16.80;;
73951;SDS011;62304;47.662;18.324;2023-02-05T19:09:12;37.53;;;15.35;;
73951;SDS011;62304;47.662;18.324;2023-02-05T19:12:16;31.70;;;11.60;;
73951;SDS011;62304;47.662;18.324;2023-02-05T19:15:21;23.50;;;9.88;;
73951;SDS011;62304;47.662;18.324;2023-02-05T19:18:26;27.05;;;12.05;;
73951;SDS011;62304;47.662;18.324;2023-02-05T19:21:30;27.15;;;12.35;;
73951;SDS011;62304;47.662;18.324;2023-02-05T19:24:36;36.23;;;13.13;;
73951;SDS011;62304;47.662;18.324;2023-02-05T19:27:44;31.90;;;13.32;;
73951;SDS011;62304;47.662;18.324;2023-02-05T19:30:48;33.08;;;13.40;;
73951;SDS011;62304;47.662;18.324;2023-02-05T19:33:53;28.33;;;12.37;;
73951;SDS011;62304;47.662;18.324;2023-02-05T19:36:59;27.63;;;12.17;;
73951;SDS011;62304;47.662;18.324;2023-02-05T19:40:04;29.70;;;11.43;;
73951;SDS011;62304;47.662;18.324;2023-02-05T19:43:09;29.40;;;12.48;;
73951;SDS011;62304;47.662;18.324;2023-02-05T19:46:14;27.67;;;12.23;;
73951;SDS011;62304;47.662;18.324;2023-02-05T19:49:20;36.10;;;14.30;;
73951;SDS011;62304;47.662;18.324;2023-02-05T19:52:25;42.58;;;16.23;;
73951;SDS011;62304;47.662;18.324;2023-02-05T19:55:33;36.08;;;14.98;;
73951;SDS011;62304;47.662;18.324;2023-02-05T19:58:39;31.10;;;10.90;;
73951;SDS011;62304;47.662;18.324;2023-02-05T20:01:46;24.42;;;9.57;;
73951;SDS011;62304;47.662;18.324;2023-02-05T20:04:52;29.25;;;11.10;;
73951;SDS011;62304;47.662;18.324;2023-02-05T20:07:56;31.10;;;12.48;;
73951;SDS011;62304;47.662;18.324;2023-02-05T20:11:09;30.83;;;11.73;;
73951;SDS011;62304;47.662;18.324;2023-02-05T20:14:15;31.50;;;15.15;;
73951;SDS011;62304;47.662;18.324;2023-02-05T20:17:19;43.22;;;18.27;;
73951;SDS011;62304;47.662;18.324;2023-02-05T20:20:23;48.63;;;21.80;;
73951;SDS011;62304;47.662;18.324;2023-02-05T20:23:36;49.83;;;19.77;;
73951;SDS011;62304;47.662;18.324;2023-02-05T20:26:40;31.75;;;14.43;;
73951;SDS011;62304;47.662;18.324;2023-02-05T20:29:45;33.92;;;15.25;;
73951;SDS011;62304;47.662;18.324;2023-02-05T20:33:07;36.47;;;15.77;;
73951;SDS011;62304;47.662;18.324;2023-02-05T20:36:12;52.90;;;19.15;;
73951;SDS011;62304;47.662;18.324;2023-02-05T20:39:16;46.97;;;19.20;;
73951;SDS011;62304;47.662;18.324;2023-02-05T20:42:23;39.03;;;16.73;;